Terminal Aerodrome Forecast
Issued by NWS

Home | Current Version | Previous Version | Text Only | Print | Product List | Glossary On
Versions: 1 2 3 4 5 6 7 8 9 10 11 12 13 14 15 16 17 18 19
268
FTUS43 KIWX 302320
TAFSBN
TAF
KSBN 302320Z 3100/3124 09012G18KT 5SM SHRA VCTS BKN007CB OVC080
     FM310200 09008KT 4SM -SHRA OVC006
     FM310600 07006KT 2SM BR VCSH OVC004
     FM311000 06006KT 3/4SM -DZ BR OVC003
     FM311500 35010KT 4SM BR VCSH OVC008=

USA.gov is the U.S. government's official web portal to all federal, state and local government web resources and services.